Terminal Aerodrome Forecast
Issued by NWS

Home | Current Version | Previous Version | Text Only | Print | Product List | Glossary On
Versions: 1 2 3 4 5 6 7 8 9 10 11 12 13 14 15 16 17 18 19
599
FTAK31 PAJN 101139
TAFAPG
TAF
PAPG 101139Z 1012/1112 24004KT P6SM -RA FEW030 OVC045
     FM101700 05005KT P6SM VCSH OVC030 WS020/13030KT
     FM102300 09010KT P6SM -RA SCT010 SCT025 OVC040 WS020/13030KT
     FM110100 13010G18KT 5SM -RA BR SCT020 OVC030 WS020/13030KT
     FM110800 12010KT 5SM BR VCSH SCT005 OVC040 WS020/13030KT
      AMD LTD TO CLD VIS AND WIND 1012/1015=

USA.gov is the U.S. government's official web portal to all federal, state and local government web resources and services.